Stratford, Washington
Current Conditions -  °F | °C
As of 10:28 AM on Thursday 27 Nov 2014 (Local Time) from KEPH Reporting Station
Overcast Overcast  
Wind Chill: 38°   Ceiling: 7000
Heat Index: 38°   Visibility: 10mi
Dew Point: 37°   Wind: 3mph
Humidity: 97%   Direction: NA
Pressure: 29.86"   Gusts: NA
Location:  47.43°N, 119.29°W
Report Text: KEPH 271828Z AUTO VRB03KT 10SM SCT001 OVC070 03/03 A2986 RMK AO2 T00330028
Loading
Personal Weather Stations






























Interactive Weather Map New forecast layout! Learn more

10-Day Weather Forecast

Advertisements
Track Severe Weather on mobile